Weerspreuk van de dag: Danst het lammetje in maart, april pakt het bij de staart.
Schnee/Eis Gültig von: 26-02-2020 05:00 bis: 08:00 Warnung für: Schnee/Eis Gefahrenstufe: Gelb info button
Plaatselijk kans op kortdurende gladheid door (natte) sneeuw.Kans op gladheid.Alle verkeersdeelnemers kunnen hinder ondervinden.Pas uw rijgedrag aan.Volg weerberichten en waarschuwingen.

english: Locally risk of poor road conditions due to (wet) snow.BE AWARE of widespread snow and/or ice on roads and pavements.Localized disruption of outdoor activities. Take care when walking, cycling or driving due to slippery surfaces. 


Thunder radar more information blitzortung!


Warnung für Schnee und Eis more information rain snow radar


Bekijk deze sites ook eens:

FPL Automotive (TIP)

Autostekkers.nl (TIP)

Over Luyksgestel

De Kempen, mijn omgeving

BOL.com

Weerstation Noordbergum

Inktweb

Weerstation Hapert

Weerstation Hoogeloon

Weerstation Son&Breugel

Weerstation Castaert

Nieuw horloge

Weerstation Tilburg Reeshof

Weerstation Scheulder

Weerverwachting Samos

Samos actueel

Weerwoord (forum)

Griekenlandforum

Vakantie naar Samos

Winterzon

Canon

Wolven in Nederland



METAR-Meldungen aus der Umgebung

   
EBAW - Antwerp
Aktualisierung: 26-02-2020 07:20
Nearby Showers, Stark bewölkt  
Nearby Showers, Stark bewölkt  
   Wind: WSW 18.5 km/h
Wind: WSW 18.5 km/h
Temperatur: 2°C
Gefühlt: -2°C
Taupunkt: 1°C
Luftfeuchte: 93%
Luftdruck: 996 hPa
Bewölkt: Stark bewölkt
Sichtbarkeit: More than 10 km
Bewölkung: Teilweise bewölkt 900 ft,
Stark bewölkt 1500 ft
EBAW 260620Z 24010KT 9999 VCSH SCT009 BKN015 02/01 Q0996 NOSIG
EBLG - Liège
Aktualisierung: 26-02-2020 07:20
Regenschauer, Schnee, Stark bewölkt  
Regenschauer, Schnee, Stark bewölkt  
   Wind: Westen 24.1 km/h
Wind: Westen 24.1 km/h
Temperatur: 0°C
Gefühlt: -6°C
Taupunkt: -1°C
Luftfeuchte: 93%
Luftdruck: 996 hPa
Bewölkt: Stark bewölkt
Sichtbarkeit: 1 km
Bewölkung: Teilweise bewölkt 200 ft,
Stark bewölkt 400 ft
EBLG 260620Z 27013KT 0500 R22L/1400D R22R/1100D R04R/1200D SHSN SCT002 BKN004 M00/M01 Q0996 TEMPO BKN003
EBCV - Mons/Bergen
Aktualisierung: 26-02-2020 07:36
Stark bewölkt  
Stark bewölkt  
   Wind: Westen 22.2 km/h
Wind: Westen 22.2 km/h
Temperatur: 3°C
Gefühlt: -2°C
Taupunkt: 0°C
Luftfeuchte: 81%
Luftdruck: 998 hPa
Bewölkt: Stark bewölkt
Sichtbarkeit: More than 10 km
Bewölkung: Teilweise bewölkt 2400 ft,
Stark bewölkt 17000 ft
EBCV 260636Z AUTO 26012KT 9999 SCT024/// BKN170/// 03/M00 Q0998 WHT
EHBK - Maastricht
Aktualisierung: 26-02-2020 07:25
Leichter Schneefall, Bewölkt  
Leichter Schneefall, Bewölkt  
   Wind: WSW 22.2 km/h
Wind: WSW 22.2 km/h
Temperatur: 0°C
Gefühlt: -6°C
Taupunkt: 0°C
Luftfeuchte: 100%
Luftdruck: 995 hPa
Bewölkt: Bewölkt
Sichtbarkeit: More than 10 km
Bewölkung: Teilweise bewölkt 100 ft,
Bewölkt 300 ft
EHBK 260625Z AUTO 24012KT 210V280 9999 -SN SCT001 OVC003 00/00 Q0995 BECMG BKN006
ELLX - Luxemburg
Aktualisierung: 26-02-2020 07:20
Light Showers, Schnee, Stark bewölkt  
Light Showers, Schnee, Stark bewölkt  
   Wind: WSW 25.9 km/h
Wind: WSW 25.9 km/h
Temperatur: 1°C
Gefühlt: -4°C
Taupunkt: 0°C
Luftfeuchte: 93%
Luftdruck: 997 hPa
Bewölkt: Stark bewölkt
Sichtbarkeit: 7 km
Bewölkung: Teilweise bewölkt 800 ft,
Stark bewölkt 900 ft
ELLX 260620Z 25014KT 7000 -SHSN SCT008 BKN009 01/M00 Q0997 NOSIG
EBOS - Oostende
Aktualisierung: 26-02-2020 07:20
Stark bewölkt  
Stark bewölkt  
   Wind: NW 42.6 km/h
Wind: NW 42.6 km/h
Temperatur: 5°C
Gefühlt: -1°C
Taupunkt: 1°C
Luftfeuchte: 76%
Luftdruck: 997 hPa
Bewölkt: Stark bewölkt
Sichtbarkeit: More than 10 km
Bewölkung: leicht bewölkt 1100 ft,
Teilweise bewölkt 2000 ft,
Stark bewölkt 3500 ft
EBOS 260620Z 31023KT 9999 FEW011 SCT020 BKN035 05/01 Q0997 TEMPO 30023G36KT

Script entwickelt von  Saratoga-weather.org Angepasst für das Template von  Weerstation Leuven

Sie finden unser Wetter-Infos auch auf:

Het Weer Aktueel

UK Metoffice

European Weather Network

Weather Underground

AWEKAS